This is the latest recevied weather packets stored in our database for station/object WX5HOT. If no packets are shown the sender has not sent any weather packets the latest 10 day(s).
| Time | Temp. | Humidity | Pressure | Rain* | Wind** | Luminosity | Snow |
|---|---|---|---|---|---|---|---|
| 1778163530 | 12.22° C | 75% | 1069.3 hPa | 0 mm | - | 516 W/m² | - |
| 1778163226 | 11.67° C | 77% | 1069.2 hPa | 0 mm | - | 516 W/m² | - |
| 1778162923 | 12.22° C | 77% | 1069 hPa | 0 mm | - | 406 W/m² | - |
| 1778162620 | 11.67° C | 80% | 1069.2 hPa | 0 mm | - | 477 W/m² | - |
| 1778162318 | 11.11° C | 79% | 1069.1 hPa | 0 mm | - | 454 W/m² | - |
| 1778162014 | 11.11° C | 80% | 1069.1 hPa | 0 mm | - | 424 W/m² | - |
| 1778161712 | 10.56° C | 81% | 1069.1 hPa | 0 mm | - | 420 W/m² | - |
| 1778161408 | 11.11° C | 80% | 1069 hPa | 0 mm | - | 400 W/m² | - |
| 1778161103 | 10.56° C | 82% | 1069.2 hPa | 0 mm | - | 379 W/m² | - |
| 1778160799 | 10.56° C | 83% | 1069.1 hPa | 0 mm | - | 361 W/m² | - |
| 1778160498 | 10.56° C | 82% | 1069 hPa | 0 mm | - | 345 W/m² | - |
| 1778160194 | 10.56° C | 83% | 1069 hPa | 0 mm | - | 326 W/m² | - |
| 1778159892 | 10.56° C | 84% | 1068.9 hPa | 0 mm | - | 305 W/m² | - |
| 1778159588 | 10.56° C | 83% | 1068.9 hPa | 0 mm | - | 285 W/m² | - |
| 1778159285 | 10.56° C | 84% | 1068.9 hPa | 0 mm | - | 264 W/m² | - |
| 1778158982 | 10° C | 83% | 1068.6 hPa | 0 mm | - | 247 W/m² | - |
| 1778158681 | 10° C | 83% | 1068.7 hPa | 0 mm | - | 228 W/m² | - |
| 1778158378 | 10° C | 82% | 1068.7 hPa | 0 mm | - | 208 W/m² | - |
| 1778158075 | 10° C | 82% | 1068.5 hPa | 0 mm | - | 189 W/m² | - |
| 1778157771 | 10° C | 83% | 1068.3 hPa | 0 mm | - | 171 W/m² | - |
| 1778157470 | 10° C | 83% | 1068.3 hPa | 0 mm | - | 153 W/m² | - |
| 1778157167 | 10° C | 84% | 1068.2 hPa | 0 mm | - | 136 W/m² | - |
| 1778156863 | 10° C | 84% | 1068.2 hPa | 0 mm | - | 120 W/m² | - |
| 1778156558 | 10° C | 83% | 1068.1 hPa | 0 mm | - | 106 W/m² | - |
| 1778156254 | 10° C | 83% | 1068 hPa | 0 mm | - | 91 W/m² | - |
* Rain latest hour (hover to see other rain measurements)
** Current wind speed in m/s (hover to see current wind gust speed)